sensor_id;sensor_type;location;lat;lon;timestamp;temperature;humidity
19906;DHT22;10115;50.906;4.438;2022-09-09T00:04:38;15.00;99.90
19906;DHT22;10115;50.906;4.438;2022-09-09T00:07:23;15.00;99.90
19906;DHT22;10115;50.906;4.438;2022-09-09T00:10:39;15.10;99.90
19906;DHT22;10115;50.906;4.438;2022-09-09T00:21:16;14.80;99.90
19906;DHT22;10115;50.906;4.438;2022-09-09T00:23:54;14.80;99.90
19906;DHT22;10115;50.906;4.438;2022-09-09T00:26:39;14.90;99.90
19906;DHT22;10115;50.906;4.438;2022-09-09T00:31:34;14.90;99.90
19906;DHT22;10115;50.906;4.438;2022-09-09T00:34:18;14.80;99.90
19906;DHT22;10115;50.906;4.438;2022-09-09T00:36:45;14.90;99.90
19906;DHT22;10115;50.906;4.438;2022-09-09T00:39:27;14.80;99.90
19906;DHT22;10115;50.906;4.438;2022-09-09T00:42:17;14.80;99.90
19906;DHT22;10115;50.906;4.438;2022-09-09T00:47:44;14.90;99.90
19906;DHT22;10115;50.906;4.438;2022-09-09T00:56:20;15.10;99.90
19906;DHT22;10115;50.906;4.438;2022-09-09T01:01:31;15.10;99.90
19906;DHT22;10115;50.906;4.438;2022-09-09T01:03:56;15.10;99.90
19906;DHT22;10115;50.906;4.438;2022-09-09T01:06:34;15.10;99.90
19906;DHT22;10115;50.906;4.438;2022-09-09T01:09:22;15.00;99.90
19906;DHT22;10115;50.906;4.438;2022-09-09T01:12:12;15.20;99.90
19906;DHT22;10115;50.906;4.438;2022-09-09T01:14:54;15.30;99.90
19906;DHT22;10115;50.906;4.438;2022-09-09T01:17:28;15.20;99.90
19906;DHT22;10115;50.906;4.438;2022-09-09T01:28:22;15.50;99.90
19906;DHT22;10115;50.906;4.438;2022-09-09T01:30:50;15.50;99.90
19906;DHT22;10115;50.906;4.438;2022-09-09T01:33:17;15.40;99.90
19906;DHT22;10115;50.906;4.438;2022-09-09T01:35:55;15.30;99.90
19906;DHT22;10115;50.906;4.438;2022-09-09T01:38:24;15.30;99.90
19906;DHT22;10115;50.906;4.438;2022-09-09T01:40:51;15.20;99.90
19906;DHT22;10115;50.906;4.438;2022-09-09T01:43:19;15.20;99.90
19906;DHT22;10115;50.906;4.438;2022-09-09T01:45:46;15.20;99.90
19906;DHT22;10115;50.906;4.438;2022-09-09T01:48:14;15.20;99.90
19906;DHT22;10115;50.906;4.438;2022-09-09T01:50:40;15.10;99.90
19906;DHT22;10115;50.906;4.438;2022-09-09T01:53:06;15.10;99.90
19906;DHT22;10115;50.906;4.438;2022-09-09T01:55:38;15.10;99.90
19906;DHT22;10115;50.906;4.438;2022-09-09T02:00:48;15.20;99.90
19906;DHT22;10115;50.906;4.438;2022-09-09T02:03:29;15.10;99.90
19906;DHT22;10115;50.906;4.438;2022-09-09T02:08:45;15.00;99.90
19906;DHT22;10115;50.906;4.438;2022-09-09T02:11:15;15.10;99.90
19906;DHT22;10115;50.906;4.438;2022-09-09T02:13:43;15.10;99.90
19906;DHT22;10115;50.906;4.438;2022-09-09T02:16:26;15.10;99.90
19906;DHT22;10115;50.906;4.438;2022-09-09T02:19:13;15.00;99.90
19906;DHT22;10115;50.906;4.438;2022-09-09T02:21:43;15.00;99.90
19906;DHT22;10115;50.906;4.438;2022-09-09T02:24:12;15.10;99.90
19906;DHT22;10115;50.906;4.438;2022-09-09T02:26:41;15.10;99.90
19906;DHT22;10115;50.906;4.438;2022-09-09T02:29:19;15.10;99.90
19906;DHT22;10115;50.906;4.438;2022-09-09T02:31:47;15.10;99.90
19906;DHT22;10115;50.906;4.438;2022-09-09T02:34:16;15.20;99.90
19906;DHT22;10115;50.906;4.438;2022-09-09T02:36:44;15.20;99.90
19906;DHT22;10115;50.906;4.438;2022-09-09T02:39:11;15.20;99.90
19906;DHT22;10115;50.906;4.438;2022-09-09T02:41:40;15.10;99.90
19906;DHT22;10115;50.906;4.438;2022-09-09T02:44:13;15.10;99.90
19906;DHT22;10115;50.906;4.438;2022-09-09T02:49:52;15.10;99.90
19906;DHT22;10115;50.906;4.438;2022-09-09T02:52:29;15.10;99.90
19906;DHT22;10115;50.906;4.438;2022-09-09T02:55:05;15.10;99.90
19906;DHT22;10115;50.906;4.438;2022-09-09T02:57:33;15.20;99.90
19906;DHT22;10115;50.906;4.438;2022-09-09T02:59:59;15.20;99.90
19906;DHT22;10115;50.906;4.438;2022-09-09T03:02:26;15.20;99.90
19906;DHT22;10115;50.906;4.438;2022-09-09T03:04:51;15.20;99.90
19906;DHT22;10115;50.906;4.438;2022-09-09T03:07:18;15.30;99.90
19906;DHT22;10115;50.906;4.438;2022-09-09T03:09:44;15.30;99.90
19906;DHT22;10115;50.906;4.438;2022-09-09T03:12:10;15.20;99.90
19906;DHT22;10115;50.906;4.438;2022-09-09T03:14:37;15.30;99.90
19906;DHT22;10115;50.906;4.438;2022-09-09T03:17:04;15.30;99.90
19906;DHT22;10115;50.906;4.438;2022-09-09T03:19:30;15.30;99.90
19906;DHT22;10115;50.906;4.438;2022-09-09T03:21:57;15.20;99.90
19906;DHT22;10115;50.906;4.438;2022-09-09T03:24:24;15.20;99.90
19906;DHT22;10115;50.906;4.438;2022-09-09T03:26:50;15.30;99.90
19906;DHT22;10115;50.906;4.438;2022-09-09T03:29:16;15.20;99.90
19906;DHT22;10115;50.906;4.438;2022-09-09T03:31:43;15.20;99.90
19906;DHT22;10115;50.906;4.438;2022-09-09T03:34:09;15.30;99.90
19906;DHT22;10115;50.906;4.438;2022-09-09T03:36:35;15.30;99.90
19906;DHT22;10115;50.906;4.438;2022-09-09T03:39:01;15.30;99.90
19906;DHT22;10115;50.906;4.438;2022-09-09T03:41:28;15.20;99.90
19906;DHT22;10115;50.906;4.438;2022-09-09T03:43:54;15.20;99.90
19906;DHT22;10115;50.906;4.438;2022-09-09T03:46:22;15.30;99.90
19906;DHT22;10115;50.906;4.438;2022-09-09T03:48:48;15.30;99.90
19906;DHT22;10115;50.906;4.438;2022-09-09T03:51:14;15.30;99.90
19906;DHT22;10115;50.906;4.438;2022-09-09T03:53:41;15.30;99.90
19906;DHT22;10115;50.906;4.438;2022-09-09T03:56:08;15.20;99.90
19906;DHT22;10115;50.906;4.438;2022-09-09T03:58:36;15.30;99.90
19906;DHT22;10115;50.906;4.438;2022-09-09T04:01:05;15.20;99.90
19906;DHT22;10115;50.906;4.438;2022-09-09T04:03:31;15.20;99.90
19906;DHT22;10115;50.906;4.438;2022-09-09T04:06:00;15.20;99.90
19906;DHT22;10115;50.906;4.438;2022-09-09T04:08:27;15.10;99.90
19906;DHT22;10115;50.906;4.438;2022-09-09T04:10:53;15.10;99.90
19906;DHT22;10115;50.906;4.438;2022-09-09T04:13:24;15.10;99.90
19906;DHT22;10115;50.906;4.438;2022-09-09T04:15:55;15.20;99.90
19906;DHT22;10115;50.906;4.438;2022-09-09T04:18:21;15.20;99.90
19906;DHT22;10115;50.906;4.438;2022-09-09T04:20:48;15.30;99.90
19906;DHT22;10115;50.906;4.438;2022-09-09T04:23:14;15.30;99.90
19906;DHT22;10115;50.906;4.438;2022-09-09T04:25:45;15.30;99.90
19906;DHT22;10115;50.906;4.438;2022-09-09T04:28:13;15.40;99.90
19906;DHT22;10115;50.906;4.438;2022-09-09T04:30:38;15.30;99.90
19906;DHT22;10115;50.906;4.438;2022-09-09T04:33:07;15.30;99.90
19906;DHT22;10115;50.906;4.438;2022-09-09T04:35:34;15.30;99.90
19906;DHT22;10115;50.906;4.438;2022-09-09T04:38:00;15.20;99.90
19906;DHT22;10115;50.906;4.438;2022-09-09T04:40:28;15.20;99.90
19906;DHT22;10115;50.906;4.438;2022-09-09T04:42:57;15.20;99.90
19906;DHT22;10115;50.906;4.438;2022-09-09T04:45:22;15.20;99.90
19906;DHT22;10115;50.906;4.438;2022-09-09T04:47:48;15.20;99.90
19906;DHT22;10115;50.906;4.438;2022-09-09T04:50:14;15.20;99.90
19906;DHT22;10115;50.906;4.438;2022-09-09T04:52:41;15.10;99.90
19906;DHT22;10115;50.906;4.438;2022-09-09T04:55:07;15.10;99.90
19906;DHT22;10115;50.906;4.438;2022-09-09T04:57:34;15.20;99.90
19906;DHT22;10115;50.906;4.438;2022-09-09T05:00:00;15.20;99.90
19906;DHT22;10115;50.906;4.438;2022-09-09T05:02:27;15.20;99.90
19906;DHT22;10115;50.906;4.438;2022-09-09T05:04:52;15.10;99.90
19906;DHT22;10115;50.906;4.438;2022-09-09T05:07:18;15.10;99.90
19906;DHT22;10115;50.906;4.438;2022-09-09T05:09:44;15.10;99.90
19906;DHT22;10115;50.906;4.438;2022-09-09T05:12:10;15.20;99.90
19906;DHT22;10115;50.906;4.438;2022-09-09T05:14:36;15.20;99.90
19906;DHT22;10115;50.906;4.438;2022-09-09T05:17:03;15.20;99.90
19906;DHT22;10115;50.906;4.438;2022-09-09T05:19:30;15.10;99.90
19906;DHT22;10115;50.906;4.438;2022-09-09T05:21:56;15.10;99.90
19906;DHT22;10115;50.906;4.438;2022-09-09T05:24:22;15.20;99.90
19906;DHT22;10115;50.906;4.438;2022-09-09T05:26:50;15.20;99.90
19906;DHT22;10115;50.906;4.438;2022-09-09T05:29:16;15.20;99.90
19906;DHT22;10115;50.906;4.438;2022-09-09T05:31:45;15.30;99.90
19906;DHT22;10115;50.906;4.438;2022-09-09T05:34:11;15.40;99.90
19906;DHT22;10115;50.906;4.438;2022-09-09T05:36:37;15.40;99.90
19906;DHT22;10115;50.906;4.438;2022-09-09T05:39:03;15.50;99.90
19906;DHT22;10115;50.906;4.438;2022-09-09T05:41:29;15.60;99.90
19906;DHT22;10115;50.906;4.438;2022-09-09T05:43:55;15.60;99.90
19906;DHT22;10115;50.906;4.438;2022-09-09T05:46:23;15.60;99.90
19906;DHT22;10115;50.906;4.438;2022-09-09T05:48:50;15.60;99.90
19906;DHT22;10115;50.906;4.438;2022-09-09T05:51:19;15.60;99.90
19906;DHT22;10115;50.906;4.438;2022-09-09T05:53:48;15.70;99.90
19906;DHT22;10115;50.906;4.438;2022-09-09T05:56:19;15.60;99.90
19906;DHT22;10115;50.906;4.438;2022-09-09T05:58:46;15.50;99.90
19906;DHT22;10115;50.906;4.438;2022-09-09T06:01:21;15.50;99.90
19906;DHT22;10115;50.906;4.438;2022-09-09T06:03:48;15.50;99.90
19906;DHT22;10115;50.906;4.438;2022-09-09T06:06:17;15.40;99.90
19906;DHT22;10115;50.906;4.438;2022-09-09T06:08:46;15.50;99.90
19906;DHT22;10115;50.906;4.438;2022-09-09T06:11:33;15.50;99.90
19906;DHT22;10115;50.906;4.438;2022-09-09T06:14:00;15.60;99.90
19906;DHT22;10115;50.906;4.438;2022-09-09T06:16:27;15.70;99.90
19906;DHT22;10115;50.906;4.438;2022-09-09T06:18:54;15.60;99.90
19906;DHT22;10115;50.906;4.438;2022-09-09T06:21:28;15.60;99.90
19906;DHT22;10115;50.906;4.438;2022-09-09T06:23:55;15.70;99.90
19906;DHT22;10115;50.906;4.438;2022-09-09T06:26:23;15.90;99.90
19906;DHT22;10115;50.906;4.438;2022-09-09T06:28:51;16.00;99.90
19906;DHT22;10115;50.906;4.438;2022-09-09T06:31:20;16.00;99.90
19906;DHT22;10115;50.906;4.438;2022-09-09T06:33:50;16.10;99.90
19906;DHT22;10115;50.906;4.438;2022-09-09T06:36:22;16.20;99.90
19906;DHT22;10115;50.906;4.438;2022-09-09T06:38:48;16.20;99.90
19906;DHT22;10115;50.906;4.438;2022-09-09T06:41:16;16.10;99.90
19906;DHT22;10115;50.906;4.438;2022-09-09T06:43:44;16.10;99.90
19906;DHT22;10115;50.906;4.438;2022-09-09T06:48:40;16.10;99.90
19906;DHT22;10115;50.906;4.438;2022-09-09T06:51:08;16.10;99.90
19906;DHT22;10115;50.906;4.438;2022-09-09T06:53:35;16.20;99.90
19906;DHT22;10115;50.906;4.438;2022-09-09T06:56:13;16.10;99.90
19906;DHT22;10115;50.906;4.438;2022-09-09T06:58:43;16.20;99.90
19906;DHT22;10115;50.906;4.438;2022-09-09T07:01:13;16.20;99.90
19906;DHT22;10115;50.906;4.438;2022-09-09T07:03:41;16.30;99.90
19906;DHT22;10115;50.906;4.438;2022-09-09T07:06:09;16.40;99.90
19906;DHT22;10115;50.906;4.438;2022-09-09T07:08:39;16.40;99.90
19906;DHT22;10115;50.906;4.438;2022-09-09T07:11:07;16.50;99.90
19906;DHT22;10115;50.906;4.438;2022-09-09T07:13:34;16.40;99.90
19906;DHT22;10115;50.906;4.438;2022-09-09T07:16:06;16.40;99.90
19906;DHT22;10115;50.906;4.438;2022-09-09T07:18:32;16.50;99.90
19906;DHT22;10115;50.906;4.438;2022-09-09T07:20:59;16.60;99.90
19906;DHT22;10115;50.906;4.438;2022-09-09T07:23:24;16.60;99.90
19906;DHT22;10115;50.906;4.438;2022-09-09T07:25:50;16.80;99.90
19906;DHT22;10115;50.906;4.438;2022-09-09T07:28:17;16.80;99.90
19906;DHT22;10115;50.906;4.438;2022-09-09T07:30:43;16.80;99.90
19906;DHT22;10115;50.906;4.438;2022-09-09T07:33:09;16.70;99.90
19906;DHT22;10115;50.906;4.438;2022-09-09T07:35:37;16.70;99.90
19906;DHT22;10115;50.906;4.438;2022-09-09T07:38:03;16.80;99.90
19906;DHT22;10115;50.906;4.438;2022-09-09T07:40:33;16.80;99.90
19906;DHT22;10115;50.906;4.438;2022-09-09T07:42:59;16.70;99.90
19906;DHT22;10115;50.906;4.438;2022-09-09T07:45:26;16.70;99.90
19906;DHT22;10115;50.906;4.438;2022-09-09T07:47:54;16.80;99.90
19906;DHT22;10115;50.906;4.438;2022-09-09T07:50:22;16.80;99.90
19906;DHT22;10115;50.906;4.438;2022-09-09T07:52:50;16.80;99.90
19906;DHT22;10115;50.906;4.438;2022-09-09T07:55:15;16.70;99.90
19906;DHT22;10115;50.906;4.438;2022-09-09T07:57:41;16.50;99.90
19906;DHT22;10115;50.906;4.438;2022-09-09T08:00:07;16.50;99.90
19906;DHT22;10115;50.906;4.438;2022-09-09T08:02:33;16.50;99.90
19906;DHT22;10115;50.906;4.438;2022-09-09T08:04:59;16.60;99.90
19906;DHT22;10115;50.906;4.438;2022-09-09T08:07:24;16.60;99.90
19906;DHT22;10115;50.906;4.438;2022-09-09T08:09:50;16.60;99.90
19906;DHT22;10115;50.906;4.438;2022-09-09T08:12:16;16.80;99.90
19906;DHT22;10115;50.906;4.438;2022-09-09T08:14:42;16.70;99.90
19906;DHT22;10115;50.906;4.438;2022-09-09T08:17:08;16.80;99.90
19906;DHT22;10115;50.906;4.438;2022-09-09T08:19:33;17.00;99.90
19906;DHT22;10115;50.906;4.438;2022-09-09T08:22:01;17.20;99.90
19906;DHT22;10115;50.906;4.438;2022-09-09T08:24:28;17.30;99.90
19906;DHT22;10115;50.906;4.438;2022-09-09T08:26:53;17.20;99.90
19906;DHT22;10115;50.906;4.438;2022-09-09T08:29:19;17.00;99.90
19906;DHT22;10115;50.906;4.438;2022-09-09T08:34:14;17.00;99.90
19906;DHT22;10115;50.906;4.438;2022-09-09T08:36:44;17.10;99.90
19906;DHT22;10115;50.906;4.438;2022-09-09T08:39:12;17.00;99.90
19906;DHT22;10115;50.906;4.438;2022-09-09T08:46:57;17.00;99.90
19906;DHT22;10115;50.906;4.438;2022-09-09T08:49:54;17.00;99.90
19906;DHT22;10115;50.906;4.438;2022-09-09T08:58:14;16.70;99.90
19906;DHT22;10115;50.906;4.438;2022-09-09T09:00:57;16.70;99.90
19906;DHT22;10115;50.906;4.438;2022-09-09T09:11:19;16.90;99.90
19906;DHT22;10115;50.906;4.438;2022-09-09T09:13:57;17.00;99.90
19906;DHT22;10115;50.906;4.438;2022-09-09T09:16:38;16.80;99.90
19906;DHT22;10115;50.906;4.438;2022-09-09T09:19:08;16.60;99.90
19906;DHT22;10115;50.906;4.438;2022-09-09T09:21:42;16.60;99.90
19906;DHT22;10115;50.906;4.438;2022-09-09T09:24:26;16.70;99.90
19906;DHT22;10115;50.906;4.438;2022-09-09T09:26:52;16.70;99.90
19906;DHT22;10115;50.906;4.438;2022-09-09T09:29:20;16.70;99.90
19906;DHT22;10115;50.906;4.438;2022-09-09T09:31:53;16.80;99.90
19906;DHT22;10115;50.906;4.438;2022-09-09T09:34:20;16.90;99.90
19906;DHT22;10115;50.906;4.438;2022-09-09T09:36:58;16.90;99.90
19906;DHT22;10115;50.906;4.438;2022-09-09T09:39:28;16.80;99.90
19906;DHT22;10115;50.906;4.438;2022-09-09T09:41:54;16.90;99.90
19906;DHT22;10115;50.906;4.438;2022-09-09T09:44:29;16.70;99.90
19906;DHT22;10115;50.906;4.438;2022-09-09T09:47:20;16.80;99.90
19906;DHT22;10115;50.906;4.438;2022-09-09T09:49:55;16.60;99.90
19906;DHT22;10115;50.906;4.438;2022-09-09T09:52:29;16.80;99.90
19906;DHT22;10115;50.906;4.438;2022-09-09T09:54:57;16.80;99.90
19906;DHT22;10115;50.906;4.438;2022-09-09T09:57:29;16.70;99.90
19906;DHT22;10115;50.906;4.438;2022-09-09T10:00:17;16.70;99.90
19906;DHT22;10115;50.906;4.438;2022-09-09T10:02:45;16.90;99.90
19906;DHT22;10115;50.906;4.438;2022-09-09T10:05:22;17.00;99.90
19906;DHT22;10115;50.906;4.438;2022-09-09T10:08:08;17.00;99.90
19906;DHT22;10115;50.906;4.438;2022-09-09T10:19:36;16.80;99.90
19906;DHT22;10115;50.906;4.438;2022-09-09T10:28:10;17.10;99.90
19906;DHT22;10115;50.906;4.438;2022-09-09T10:30:37;17.20;99.90
19906;DHT22;10115;50.906;4.438;2022-09-09T10:33:12;17.30;99.90
19906;DHT22;10115;50.906;4.438;2022-09-09T10:35:46;17.50;99.90
19906;DHT22;10115;50.906;4.438;2022-09-09T10:46:26;17.90;99.90
19906;DHT22;10115;50.906;4.438;2022-09-09T10:49:13;17.80;99.90
19906;DHT22;10115;50.906;4.438;2022-09-09T10:56:54;18.50;99.90
19906;DHT22;10115;50.906;4.438;2022-09-09T10:59:31;18.40;99.90
19906;DHT22;10115;50.906;4.438;2022-09-09T11:02:18;18.40;99.90
19906;DHT22;10115;50.906;4.438;2022-09-09T11:05:41;18.30;99.90
19906;DHT22;10115;50.906;4.438;2022-09-09T11:07:55;18.20;99.90
19906;DHT22;10115;50.906;4.438;2022-09-09T11:10:41;18.60;99.90
19906;DHT22;10115;50.906;4.438;2022-09-09T11:13:15;18.70;99.90
19906;DHT22;10115;50.906;4.438;2022-09-09T11:15:53;19.00;99.90
19906;DHT22;10115;50.906;4.438;2022-09-09T11:18:21;19.00;99.90
19906;DHT22;10115;50.906;4.438;2022-09-09T11:20:51;18.90;99.90
19906;DHT22;10115;50.906;4.438;2022-09-09T11:23:30;18.70;99.90
19906;DHT22;10115;50.906;4.438;2022-09-09T11:26:01;18.90;99.90
19906;DHT22;10115;50.906;4.438;2022-09-09T11:34:04;18.80;99.90
19906;DHT22;10115;50.906;4.438;2022-09-09T11:36:59;18.50;99.90
19906;DHT22;10115;50.906;4.438;2022-09-09T11:42:15;18.50;99.90
19906;DHT22;10115;50.906;4.438;2022-09-09T11:44:41;18.50;99.90
19906;DHT22;10115;50.906;4.438;2022-09-09T11:49:45;18.40;99.90
19906;DHT22;10115;50.906;4.438;2022-09-09T11:52:36;18.40;99.90
19906;DHT22;10115;50.906;4.438;2022-09-09T11:55:29;18.40;99.90
19906;DHT22;10115;50.906;4.438;2022-09-09T12:03:04;18.60;99.90
19906;DHT22;10115;50.906;4.438;2022-09-09T12:05:42;18.50;99.90
19906;DHT22;10115;50.906;4.438;2022-09-09T12:08:11;18.40;99.90
19906;DHT22;10115;50.906;4.438;2022-09-09T12:10:53;18.30;99.90
19906;DHT22;10115;50.906;4.438;2022-09-09T12:13:22;18.20;99.90
19906;DHT22;10115;50.906;4.438;2022-09-09T12:15:56;18.20;99.90
19906;DHT22;10115;50.906;4.438;2022-09-09T12:18:37;18.20;99.90
19906;DHT22;10115;50.906;4.438;2022-09-09T12:26:45;18.30;99.90
19906;DHT22;10115;50.906;4.438;2022-09-09T12:32:07;18.30;99.90
19906;DHT22;10115;50.906;4.438;2022-09-09T12:37:38;18.30;99.90
19906;DHT22;10115;50.906;4.438;2022-09-09T12:40:18;18.30;99.90
19906;DHT22;10115;50.906;4.438;2022-09-09T12:42:44;18.30;99.90
19906;DHT22;10115;50.906;4.438;2022-09-09T12:45:21;18.30;99.90
19906;DHT22;10115;50.906;4.438;2022-09-09T12:48:09;18.30;99.90
19906;DHT22;10115;50.906;4.438;2022-09-09T12:50:48;18.50;99.90
19906;DHT22;10115;50.906;4.438;2022-09-09T12:53:24;18.60;99.90
19906;DHT22;10115;50.906;4.438;2022-09-09T12:58:23;18.90;99.90
19906;DHT22;10115;50.906;4.438;2022-09-09T13:00:52;18.90;99.90
19906;DHT22;10115;50.906;4.438;2022-09-09T13:03:19;19.00;99.90
19906;DHT22;10115;50.906;4.438;2022-09-09T13:05:49;19.10;99.90
19906;DHT22;10115;50.906;4.438;2022-09-09T13:08:16;19.20;99.90
19906;DHT22;10115;50.906;4.438;2022-09-09T13:13:28;19.90;99.90
19906;DHT22;10115;50.906;4.438;2022-09-09T13:16:00;19.60;99.90
19906;DHT22;10115;50.906;4.438;2022-09-09T13:18:32;19.10;99.90
19906;DHT22;10115;50.906;4.438;2022-09-09T13:20:59;19.10;99.90
19906;DHT22;10115;50.906;4.438;2022-09-09T13:23:31;19.00;99.90
19906;DHT22;10115;50.906;4.438;2022-09-09T13:25:59;19.30;99.90
19906;DHT22;10115;50.906;4.438;2022-09-09T13:28:28;19.50;99.90
19906;DHT22;10115;50.906;4.438;2022-09-09T13:30:59;19.70;99.90
19906;DHT22;10115;50.906;4.438;2022-09-09T13:33:38;19.40;99.90
19906;DHT22;10115;50.906;4.438;2022-09-09T13:36:08;19.10;99.90
19906;DHT22;10115;50.906;4.438;2022-09-09T13:38:53;19.10;99.90
19906;DHT22;10115;50.906;4.438;2022-09-09T13:41:25;19.00;99.90
19906;DHT22;10115;50.906;4.438;2022-09-09T13:43:53;19.50;99.90
19906;DHT22;10115;50.906;4.438;2022-09-09T13:48:59;19.90;99.90
19906;DHT22;10115;50.906;4.438;2022-09-09T13:51:38;20.10;99.90
19906;DHT22;10115;50.906;4.438;2022-09-09T13:54:05;19.70;99.90
19906;DHT22;10115;50.906;4.438;2022-09-09T13:56:33;20.20;99.90
19906;DHT22;10115;50.906;4.438;2022-09-09T13:58:59;20.40;99.90
19906;DHT22;10115;50.906;4.438;2022-09-09T14:01:24;20.40;99.90
19906;DHT22;10115;50.906;4.438;2022-09-09T14:03:50;20.30;99.90
19906;DHT22;10115;50.906;4.438;2022-09-09T14:06:16;20.00;99.90
19906;DHT22;10115;50.906;4.438;2022-09-09T14:08:44;19.60;99.90
19906;DHT22;10115;50.906;4.438;2022-09-09T14:11:12;19.90;99.90
19906;DHT22;10115;50.906;4.438;2022-09-09T14:13:38;20.10;99.90
19906;DHT22;10115;50.906;4.438;2022-09-09T14:16:04;20.10;99.90
19906;DHT22;10115;50.906;4.438;2022-09-09T14:18:30;20.20;99.90
19906;DHT22;10115;50.906;4.438;2022-09-09T14:20:55;19.80;99.90
19906;DHT22;10115;50.906;4.438;2022-09-09T14:23:22;19.80;99.90
19906;DHT22;10115;50.906;4.438;2022-09-09T14:25:50;20.00;99.90
19906;DHT22;10115;50.906;4.438;2022-09-09T14:28:16;20.20;99.90
19906;DHT22;10115;50.906;4.438;2022-09-09T14:30:43;20.30;99.90
19906;DHT22;10115;50.906;4.438;2022-09-09T14:33:11;20.40;99.90
19906;DHT22;10115;50.906;4.438;2022-09-09T14:35:37;20.30;99.90
19906;DHT22;10115;50.906;4.438;2022-09-09T14:38:04;20.20;99.90
19906;DHT22;10115;50.906;4.438;2022-09-09T14:40:30;20.10;99.90
19906;DHT22;10115;50.906;4.438;2022-09-09T14:42:56;20.50;99.90
19906;DHT22;10115;50.906;4.438;2022-09-09T14:45:22;20.00;99.90
19906;DHT22;10115;50.906;4.438;2022-09-09T14:47:50;19.80;99.90
19906;DHT22;10115;50.906;4.438;2022-09-09T14:50:17;19.80;99.90
19906;DHT22;10115;50.906;4.438;2022-09-09T14:52:43;20.00;99.90
19906;DHT22;10115;50.906;4.438;2022-09-09T14:55:09;20.00;99.90
19906;DHT22;10115;50.906;4.438;2022-09-09T14:57:35;20.20;99.90
19906;DHT22;10115;50.906;4.438;2022-09-09T15:00:03;20.30;99.90
19906;DHT22;10115;50.906;4.438;2022-09-09T15:02:29;20.40;99.90
19906;DHT22;10115;50.906;4.438;2022-09-09T15:04:55;20.30;99.90
19906;DHT22;10115;50.906;4.438;2022-09-09T15:07:26;20.40;99.90
19906;DHT22;10115;50.906;4.438;2022-09-09T15:09:54;20.70;99.90
19906;DHT22;10115;50.906;4.438;2022-09-09T15:12:19;21.00;99.90
19906;DHT22;10115;50.906;4.438;2022-09-09T15:14:46;20.70;99.90
19906;DHT22;10115;50.906;4.438;2022-09-09T15:17:12;20.60;99.90
19906;DHT22;10115;50.906;4.438;2022-09-09T15:19:38;20.70;99.90
19906;DHT22;10115;50.906;4.438;2022-09-09T15:22:04;21.20;99.90
19906;DHT22;10115;50.906;4.438;2022-09-09T15:24:33;21.50;99.90
19906;DHT22;10115;50.906;4.438;2022-09-09T15:27:00;22.00;99.90
19906;DHT22;10115;50.906;4.438;2022-09-09T15:29:26;21.30;99.90
19906;DHT22;10115;50.906;4.438;2022-09-09T15:31:54;21.20;99.90
19906;DHT22;10115;50.906;4.438;2022-09-09T15:34:20;21.00;99.90
19906;DHT22;10115;50.906;4.438;2022-09-09T15:36:46;20.60;99.90
19906;DHT22;10115;50.906;4.438;2022-09-09T15:39:16;20.40;99.90
19906;DHT22;10115;50.906;4.438;2022-09-09T15:41:44;20.50;99.90
19906;DHT22;10115;50.906;4.438;2022-09-09T15:44:10;20.10;99.90
19906;DHT22;10115;50.906;4.438;2022-09-09T15:46:58;20.00;99.90
19906;DHT22;10115;50.906;4.438;2022-09-09T15:49:25;20.10;99.90
19906;DHT22;10115;50.906;4.438;2022-09-09T15:51:56;20.20;99.90
19906;DHT22;10115;50.906;4.438;2022-09-09T15:54:24;20.40;99.90
19906;DHT22;10115;50.906;4.438;2022-09-09T15:56:52;20.60;99.90
19906;DHT22;10115;50.906;4.438;2022-09-09T15:59:20;20.20;99.90
19906;DHT22;10115;50.906;4.438;2022-09-09T16:01:46;20.10;99.90
19906;DHT22;10115;50.906;4.438;2022-09-09T16:04:12;20.00;99.90
19906;DHT22;10115;50.906;4.438;2022-09-09T16:06:38;19.70;99.90
19906;DHT22;10115;50.906;4.438;2022-09-09T16:09:05;19.70;99.90
19906;DHT22;10115;50.906;4.438;2022-09-09T16:11:34;19.60;99.90
19906;DHT22;10115;50.906;4.438;2022-09-09T16:14:01;19.50;99.90
19906;DHT22;10115;50.906;4.438;2022-09-09T16:16:28;19.50;99.90
19906;DHT22;10115;50.906;4.438;2022-09-09T16:18:57;19.40;99.90
19906;DHT22;10115;50.906;4.438;2022-09-09T16:21:28;19.40;99.90
19906;DHT22;10115;50.906;4.438;2022-09-09T16:23:55;19.40;99.90
19906;DHT22;10115;50.906;4.438;2022-09-09T16:26:22;19.30;99.90
19906;DHT22;10115;50.906;4.438;2022-09-09T16:28:49;19.30;99.90
19906;DHT22;10115;50.906;4.438;2022-09-09T16:31:20;19.30;99.90
19906;DHT22;10115;50.906;4.438;2022-09-09T16:33:48;19.20;99.90
19906;DHT22;10115;50.906;4.438;2022-09-09T16:36:17;19.30;99.90
19906;DHT22;10115;50.906;4.438;2022-09-09T16:38:43;19.20;99.90
19906;DHT22;10115;50.906;4.438;2022-09-09T16:41:10;19.10;99.90
19906;DHT22;10115;50.906;4.438;2022-09-09T16:43:36;19.00;99.90
19906;DHT22;10115;50.906;4.438;2022-09-09T16:46:22;18.90;99.90
19906;DHT22;10115;50.906;4.438;2022-09-09T16:48:49;19.30;99.90
19906;DHT22;10115;50.906;4.438;2022-09-09T16:51:24;19.80;99.90
19906;DHT22;10115;50.906;4.438;2022-09-09T16:53:51;20.30;99.90
19906;DHT22;10115;50.906;4.438;2022-09-09T16:56:23;20.50;99.90
19906;DHT22;10115;50.906;4.438;2022-09-09T16:58:55;20.30;99.90
19906;DHT22;10115;50.906;4.438;2022-09-09T17:01:25;20.50;99.90
19906;DHT22;10115;50.906;4.438;2022-09-09T17:03:59;20.00;99.90
19906;DHT22;10115;50.906;4.438;2022-09-09T17:06:26;19.30;99.90
19906;DHT22;10115;50.906;4.438;2022-09-09T17:09:01;19.20;99.90
19906;DHT22;10115;50.906;4.438;2022-09-09T17:11:28;19.20;99.90
19906;DHT22;10115;50.906;4.438;2022-09-09T17:13:55;19.20;99.90
19906;DHT22;10115;50.906;4.438;2022-09-09T17:16:24;19.10;99.90
19906;DHT22;10115;50.906;4.438;2022-09-09T17:18:50;19.20;99.90
19906;DHT22;10115;50.906;4.438;2022-09-09T17:21:19;19.10;99.90
19906;DHT22;10115;50.906;4.438;2022-09-09T17:23:45;19.00;99.90
19906;DHT22;10115;50.906;4.438;2022-09-09T17:26:14;18.90;99.90
19906;DHT22;10115;50.906;4.438;2022-09-09T17:28:42;18.90;99.90
19906;DHT22;10115;50.906;4.438;2022-09-09T17:31:09;18.70;99.90
19906;DHT22;10115;50.906;4.438;2022-09-09T17:33:37;18.60;99.90
19906;DHT22;10115;50.906;4.438;2022-09-09T17:36:11;18.40;99.90
19906;DHT22;10115;50.906;4.438;2022-09-09T17:38:38;18.40;99.90
19906;DHT22;10115;50.906;4.438;2022-09-09T17:41:25;18.40;99.90
19906;DHT22;10115;50.906;4.438;2022-09-09T17:43:52;18.50;99.90
19906;DHT22;10115;50.906;4.438;2022-09-09T17:46:18;18.40;99.90
19906;DHT22;10115;50.906;4.438;2022-09-09T17:48:49;18.40;99.90
19906;DHT22;10115;50.906;4.438;2022-09-09T17:51:18;18.30;99.90
19906;DHT22;10115;50.906;4.438;2022-09-09T17:53:50;18.30;99.90
19906;DHT22;10115;50.906;4.438;2022-09-09T17:56:18;18.20;99.90
19906;DHT22;10115;50.906;4.438;2022-09-09T17:58:51;18.20;99.90